sensor_id;sensor_type;location;lat;lon;timestamp;temperature;humidity
23116;DHT22;11727;52.134;5.052;2023-02-26T00:01:13;1.10;99.90
23116;DHT22;11727;52.134;5.052;2023-02-26T00:03:38;1.20;99.90
23116;DHT22;11727;52.134;5.052;2023-02-26T00:06:05;1.30;99.90
23116;DHT22;11727;52.134;5.052;2023-02-26T00:08:31;1.30;99.90
23116;DHT22;11727;52.134;5.052;2023-02-26T00:10:57;1.40;99.90
23116;DHT22;11727;52.134;5.052;2023-02-26T00:13:29;1.60;99.90
23116;DHT22;11727;52.134;5.052;2023-02-26T00:15:58;1.80;99.90
23116;DHT22;11727;52.134;5.052;2023-02-26T00:18:24;2.00;99.90
23116;DHT22;11727;52.134;5.052;2023-02-26T00:20:50;2.30;99.90
23116;DHT22;11727;52.134;5.052;2023-02-26T00:23:16;2.50;99.90
23116;DHT22;11727;52.134;5.052;2023-02-26T00:25:43;2.60;99.90
23116;DHT22;11727;52.134;5.052;2023-02-26T00:28:09;2.70;99.90
23116;DHT22;11727;52.134;5.052;2023-02-26T00:30:35;2.70;99.90
23116;DHT22;11727;52.134;5.052;2023-02-26T00:33:01;2.80;99.90
23116;DHT22;11727;52.134;5.052;2023-02-26T00:35:30;2.80;99.90
23116;DHT22;11727;52.134;5.052;2023-02-26T00:38:05;2.90;99.90
23116;DHT22;11727;52.134;5.052;2023-02-26T00:40:45;2.90;99.90
23116;DHT22;11727;52.134;5.052;2023-02-26T00:43:19;2.90;99.90
23116;DHT22;11727;52.134;5.052;2023-02-26T00:46:02;3.00;99.90
23116;DHT22;11727;52.134;5.052;2023-02-26T00:48:49;3.00;99.90
23116;DHT22;11727;52.134;5.052;2023-02-26T00:54:19;3.00;99.90
23116;DHT22;11727;52.134;5.052;2023-02-26T00:56:47;3.00;99.90
23116;DHT22;11727;52.134;5.052;2023-02-26T00:59:14;2.90;99.90
23116;DHT22;11727;52.134;5.052;2023-02-26T01:01:39;2.90;99.90
23116;DHT22;11727;52.134;5.052;2023-02-26T01:04:05;2.90;99.90
23116;DHT22;11727;52.134;5.052;2023-02-26T01:06:33;2.80;99.90
23116;DHT22;11727;52.134;5.052;2023-02-26T01:11:36;2.70;99.90
23116;DHT22;11727;52.134;5.052;2023-02-26T01:14:03;2.70;99.90
23116;DHT22;11727;52.134;5.052;2023-02-26T01:16:32;2.60;99.90
23116;DHT22;11727;52.134;5.052;2023-02-26T01:19:04;2.60;99.90
23116;DHT22;11727;52.134;5.052;2023-02-26T01:21:40;2.50;99.90
23116;DHT22;11727;52.134;5.052;2023-02-26T01:24:12;2.40;99.90
23116;DHT22;11727;52.134;5.052;2023-02-26T01:26:38;2.40;99.90
23116;DHT22;11727;52.134;5.052;2023-02-26T01:29:04;2.30;99.90
23116;DHT22;11727;52.134;5.052;2023-02-26T01:31:56;2.30;99.90
23116;DHT22;11727;52.134;5.052;2023-02-26T01:37:26;2.20;99.90
23116;DHT22;11727;52.134;5.052;2023-02-26T01:42:21;2.10;99.90
23116;DHT22;11727;52.134;5.052;2023-02-26T01:45:00;2.10;99.90
23116;DHT22;11727;52.134;5.052;2023-02-26T01:47:28;2.10;99.90
23116;DHT22;11727;52.134;5.052;2023-02-26T01:49:56;2.00;99.90
23116;DHT22;11727;52.134;5.052;2023-02-26T01:55:36;1.90;99.90
23116;DHT22;11727;52.134;5.052;2023-02-26T01:58:02;1.90;99.90
23116;DHT22;11727;52.134;5.052;2023-02-26T02:00:29;1.90;99.90
23116;DHT22;11727;52.134;5.052;2023-02-26T02:02:55;1.90;99.90
23116;DHT22;11727;52.134;5.052;2023-02-26T02:08:08;1.80;99.90
23116;DHT22;11727;52.134;5.052;2023-02-26T02:10:34;1.80;99.90
23116;DHT22;11727;52.134;5.052;2023-02-26T02:13:16;1.80;99.90
23116;DHT22;11727;52.134;5.052;2023-02-26T02:21:53;1.60;99.90
23116;DHT22;11727;52.134;5.052;2023-02-26T02:27:42;1.50;99.90
23116;DHT22;11727;52.134;5.052;2023-02-26T02:30:22;1.50;99.90
23116;DHT22;11727;52.134;5.052;2023-02-26T02:33:00;1.50;99.90
23116;DHT22;11727;52.134;5.052;2023-02-26T02:35:35;1.40;99.90
23116;DHT22;11727;52.134;5.052;2023-02-26T02:38:19;1.40;99.90
23116;DHT22;11727;52.134;5.052;2023-02-26T02:40:51;1.50;99.90
23116;DHT22;11727;52.134;5.052;2023-02-26T02:43:26;1.50;99.90
23116;DHT22;11727;52.134;5.052;2023-02-26T02:48:35;1.60;99.90
23116;DHT22;11727;52.134;5.052;2023-02-26T02:53:45;1.60;99.90
23116;DHT22;11727;52.134;5.052;2023-02-26T02:56:49;1.50;99.90
23116;DHT22;11727;52.134;5.052;2023-02-26T02:59:25;1.50;99.90
23116;DHT22;11727;52.134;5.052;2023-02-26T03:02:06;1.50;99.90
23116;DHT22;11727;52.134;5.052;2023-02-26T03:04:33;1.50;99.90
23116;DHT22;11727;52.134;5.052;2023-02-26T03:06:58;1.50;99.90
23116;DHT22;11727;52.134;5.052;2023-02-26T03:09:24;1.50;99.90
23116;DHT22;11727;52.134;5.052;2023-02-26T03:11:50;1.50;99.90
23116;DHT22;11727;52.134;5.052;2023-02-26T03:14:16;1.40;99.90
23116;DHT22;11727;52.134;5.052;2023-02-26T03:19:32;1.40;99.90
23116;DHT22;11727;52.134;5.052;2023-02-26T03:22:21;1.40;99.90
23116;DHT22;11727;52.134;5.052;2023-02-26T03:27:27;1.40;99.90
23116;DHT22;11727;52.134;5.052;2023-02-26T03:30:07;1.30;99.90
23116;DHT22;11727;52.134;5.052;2023-02-26T03:35:37;1.40;99.90
23116;DHT22;11727;52.134;5.052;2023-02-26T03:38:08;1.30;99.90
23116;DHT22;11727;52.134;5.052;2023-02-26T03:40:40;1.30;99.90
23116;DHT22;11727;52.134;5.052;2023-02-26T03:46:02;1.20;99.90
23116;DHT22;11727;52.134;5.052;2023-02-26T03:48:29;1.20;99.90
23116;DHT22;11727;52.134;5.052;2023-02-26T03:51:02;1.20;99.90
23116;DHT22;11727;52.134;5.052;2023-02-26T03:53:32;1.20;99.90
23116;DHT22;11727;52.134;5.052;2023-02-26T03:56:02;1.10;99.90
23116;DHT22;11727;52.134;5.052;2023-02-26T03:58:28;1.10;99.90
23116;DHT22;11727;52.134;5.052;2023-02-26T04:01:05;1.10;99.90
23116;DHT22;11727;52.134;5.052;2023-02-26T04:03:39;1.10;99.90
23116;DHT22;11727;52.134;5.052;2023-02-26T04:06:06;1.00;99.90
23116;DHT22;11727;52.134;5.052;2023-02-26T04:08:32;1.00;99.90
23116;DHT22;11727;52.134;5.052;2023-02-26T04:11:23;1.00;99.90
23116;DHT22;11727;52.134;5.052;2023-02-26T04:13:50;1.00;99.90
23116;DHT22;11727;52.134;5.052;2023-02-26T04:16:16;0.90;99.90
23116;DHT22;11727;52.134;5.052;2023-02-26T04:18:43;0.90;99.90
23116;DHT22;11727;52.134;5.052;2023-02-26T04:21:13;0.90;99.90
23116;DHT22;11727;52.134;5.052;2023-02-26T04:23:39;0.80;99.90
23116;DHT22;11727;52.134;5.052;2023-02-26T04:26:04;0.70;99.90
23116;DHT22;11727;52.134;5.052;2023-02-26T04:28:30;0.70;99.90
23116;DHT22;11727;52.134;5.052;2023-02-26T04:30:56;0.70;99.90
23116;DHT22;11727;52.134;5.052;2023-02-26T04:33:21;0.60;99.90
23116;DHT22;11727;52.134;5.052;2023-02-26T04:35:47;0.60;99.90
23116;DHT22;11727;52.134;5.052;2023-02-26T04:38:13;0.60;99.90
23116;DHT22;11727;52.134;5.052;2023-02-26T04:40:39;0.60;99.90
23116;DHT22;11727;52.134;5.052;2023-02-26T04:43:04;0.60;99.90
23116;DHT22;11727;52.134;5.052;2023-02-26T04:45:30;0.50;99.90
23116;DHT22;11727;52.134;5.052;2023-02-26T04:47:55;0.50;99.90
23116;DHT22;11727;52.134;5.052;2023-02-26T04:50:21;0.50;99.90
23116;DHT22;11727;52.134;5.052;2023-02-26T04:52:47;0.50;99.90
23116;DHT22;11727;52.134;5.052;2023-02-26T04:55:12;0.50;99.90
23116;DHT22;11727;52.134;5.052;2023-02-26T04:57:39;0.40;99.90
23116;DHT22;11727;52.134;5.052;2023-02-26T05:00:05;0.40;99.90
23116;DHT22;11727;52.134;5.052;2023-02-26T05:02:32;0.30;99.90
23116;DHT22;11727;52.134;5.052;2023-02-26T05:04:58;0.30;99.90
23116;DHT22;11727;52.134;5.052;2023-02-26T05:07:23;0.30;99.90
23116;DHT22;11727;52.134;5.052;2023-02-26T05:09:49;0.30;99.90
23116;DHT22;11727;52.134;5.052;2023-02-26T05:12:14;0.30;99.90
23116;DHT22;11727;52.134;5.052;2023-02-26T05:14:40;0.30;99.90
23116;DHT22;11727;52.134;5.052;2023-02-26T05:17:07;0.30;99.90
23116;DHT22;11727;52.134;5.052;2023-02-26T05:19:33;0.20;99.90
23116;DHT22;11727;52.134;5.052;2023-02-26T05:21:58;0.20;99.90
23116;DHT22;11727;52.134;5.052;2023-02-26T05:24:24;0.20;99.90
23116;DHT22;11727;52.134;5.052;2023-02-26T05:26:49;0.20;99.90
23116;DHT22;11727;52.134;5.052;2023-02-26T05:29:15;0.20;99.90
23116;DHT22;11727;52.134;5.052;2023-02-26T05:31:41;0.10;99.90
23116;DHT22;11727;52.134;5.052;2023-02-26T05:34:07;0.10;99.90
23116;DHT22;11727;52.134;5.052;2023-02-26T05:36:32;0.10;99.90
23116;DHT22;11727;52.134;5.052;2023-02-26T05:38:58;0.00;99.90
23116;DHT22;11727;52.134;5.052;2023-02-26T05:41:23;0.00;99.90
23116;DHT22;11727;52.134;5.052;2023-02-26T05:43:49;-0.10;99.90
23116;DHT22;11727;52.134;5.052;2023-02-26T05:46:15;-0.10;99.90
23116;DHT22;11727;52.134;5.052;2023-02-26T05:48:40;-0.20;99.90
23116;DHT22;11727;52.134;5.052;2023-02-26T05:51:06;-0.20;99.90
23116;DHT22;11727;52.134;5.052;2023-02-26T05:53:32;-0.20;99.90
23116;DHT22;11727;52.134;5.052;2023-02-26T05:55:57;-0.30;99.90
23116;DHT22;11727;52.134;5.052;2023-02-26T05:58:23;-0.30;99.90
23116;DHT22;11727;52.134;5.052;2023-02-26T06:00:48;-0.30;99.90
23116;DHT22;11727;52.134;5.052;2023-02-26T06:03:14;-0.30;99.90
23116;DHT22;11727;52.134;5.052;2023-02-26T06:05:40;-0.40;99.90
23116;DHT22;11727;52.134;5.052;2023-02-26T06:08:05;-0.40;99.90
23116;DHT22;11727;52.134;5.052;2023-02-26T06:10:31;-0.40;99.90
23116;DHT22;11727;52.134;5.052;2023-02-26T06:12:57;-0.50;99.90
23116;DHT22;11727;52.134;5.052;2023-02-26T06:15:23;-0.50;99.90
23116;DHT22;11727;52.134;5.052;2023-02-26T06:17:49;-0.50;99.90
23116;DHT22;11727;52.134;5.052;2023-02-26T06:20:14;-0.60;99.90
23116;DHT22;11727;52.134;5.052;2023-02-26T06:22:40;-0.60;99.90
23116;DHT22;11727;52.134;5.052;2023-02-26T06:25:06;-0.70;99.90
23116;DHT22;11727;52.134;5.052;2023-02-26T06:27:32;-0.70;99.90
23116;DHT22;11727;52.134;5.052;2023-02-26T06:29:57;-0.70;99.90
23116;DHT22;11727;52.134;5.052;2023-02-26T06:32:23;-0.70;99.90
23116;DHT22;11727;52.134;5.052;2023-02-26T06:34:48;-0.70;99.90
23116;DHT22;11727;52.134;5.052;2023-02-26T06:37:14;-0.70;99.90
23116;DHT22;11727;52.134;5.052;2023-02-26T06:39:40;-0.70;99.90
23116;DHT22;11727;52.134;5.052;2023-02-26T06:42:06;-0.70;99.90
23116;DHT22;11727;52.134;5.052;2023-02-26T06:44:32;-0.70;99.90
23116;DHT22;11727;52.134;5.052;2023-02-26T06:46:57;-0.60;99.90
23116;DHT22;11727;52.134;5.052;2023-02-26T06:49:23;-0.60;99.90
23116;DHT22;11727;52.134;5.052;2023-02-26T06:51:49;-0.60;99.90
23116;DHT22;11727;52.134;5.052;2023-02-26T06:54:14;-0.50;99.90
23116;DHT22;11727;52.134;5.052;2023-02-26T06:56:40;-0.50;99.90
23116;DHT22;11727;52.134;5.052;2023-02-26T06:59:06;-0.40;99.90
23116;DHT22;11727;52.134;5.052;2023-02-26T07:01:32;-0.30;99.90
23116;DHT22;11727;52.134;5.052;2023-02-26T07:03:58;-0.20;99.90
23116;DHT22;11727;52.134;5.052;2023-02-26T07:06:23;-0.20;99.90
23116;DHT22;11727;52.134;5.052;2023-02-26T07:08:49;-0.20;99.90
23116;DHT22;11727;52.134;5.052;2023-02-26T07:11:14;-0.10;99.90
23116;DHT22;11727;52.134;5.052;2023-02-26T07:13:40;0.00;99.90
23116;DHT22;11727;52.134;5.052;2023-02-26T07:16:06;0.10;99.90
23116;DHT22;11727;52.134;5.052;2023-02-26T07:18:33;0.20;99.90
23116;DHT22;11727;52.134;5.052;2023-02-26T07:20:59;0.20;99.90
23116;DHT22;11727;52.134;5.052;2023-02-26T07:23:25;0.30;99.90
23116;DHT22;11727;52.134;5.052;2023-02-26T07:25:51;0.40;99.90
23116;DHT22;11727;52.134;5.052;2023-02-26T07:28:16;0.50;99.90
23116;DHT22;11727;52.134;5.052;2023-02-26T07:30:42;0.70;99.90
23116;DHT22;11727;52.134;5.052;2023-02-26T07:33:08;0.80;99.90
23116;DHT22;11727;52.134;5.052;2023-02-26T07:35:34;0.90;99.90
23116;DHT22;11727;52.134;5.052;2023-02-26T07:38:00;1.10;99.90
23116;DHT22;11727;52.134;5.052;2023-02-26T07:40:26;1.10;99.90
23116;DHT22;11727;52.134;5.052;2023-02-26T07:42:51;1.20;99.90
23116;DHT22;11727;52.134;5.052;2023-02-26T07:45:17;1.20;99.90
23116;DHT22;11727;52.134;5.052;2023-02-26T07:47:47;1.30;99.90
23116;DHT22;11727;52.134;5.052;2023-02-26T07:50:13;1.50;99.90
23116;DHT22;11727;52.134;5.052;2023-02-26T07:52:39;1.60;99.90
23116;DHT22;11727;52.134;5.052;2023-02-26T07:55:04;1.60;99.90
23116;DHT22;11727;52.134;5.052;2023-02-26T07:57:30;1.80;99.90
23116;DHT22;11727;52.134;5.052;2023-02-26T07:59:56;1.80;99.90
23116;DHT22;11727;52.134;5.052;2023-02-26T08:02:21;2.00;99.90
23116;DHT22;11727;52.134;5.052;2023-02-26T08:04:48;2.10;99.90
23116;DHT22;11727;52.134;5.052;2023-02-26T08:07:14;2.20;99.90
23116;DHT22;11727;52.134;5.052;2023-02-26T08:09:39;2.30;99.90
23116;DHT22;11727;52.134;5.052;2023-02-26T08:12:05;2.40;99.90
23116;DHT22;11727;52.134;5.052;2023-02-26T08:14:31;2.40;99.90
23116;DHT22;11727;52.134;5.052;2023-02-26T08:16:56;2.40;99.90
23116;DHT22;11727;52.134;5.052;2023-02-26T08:19:22;2.40;99.90
23116;DHT22;11727;52.134;5.052;2023-02-26T08:21:48;2.50;99.90
23116;DHT22;11727;52.134;5.052;2023-02-26T08:24:13;2.50;99.90
23116;DHT22;11727;52.134;5.052;2023-02-26T08:26:39;2.60;99.90
23116;DHT22;11727;52.134;5.052;2023-02-26T08:29:05;2.60;99.90
23116;DHT22;11727;52.134;5.052;2023-02-26T08:31:31;2.80;99.90
23116;DHT22;11727;52.134;5.052;2023-02-26T08:33:59;2.90;99.90
23116;DHT22;11727;52.134;5.052;2023-02-26T08:36:24;2.90;99.90
23116;DHT22;11727;52.134;5.052;2023-02-26T08:38:50;2.80;99.90
23116;DHT22;11727;52.134;5.052;2023-02-26T08:41:16;2.80;99.90
23116;DHT22;11727;52.134;5.052;2023-02-26T08:43:42;2.80;99.90
23116;DHT22;11727;52.134;5.052;2023-02-26T08:46:08;2.80;99.90
23116;DHT22;11727;52.134;5.052;2023-02-26T08:48:33;2.80;99.90
23116;DHT22;11727;52.134;5.052;2023-02-26T08:50:59;2.80;99.90
23116;DHT22;11727;52.134;5.052;2023-02-26T08:53:25;2.80;99.90
23116;DHT22;11727;52.134;5.052;2023-02-26T08:55:51;2.70;99.90
23116;DHT22;11727;52.134;5.052;2023-02-26T08:58:18;2.70;99.90
23116;DHT22;11727;52.134;5.052;2023-02-26T09:00:44;2.80;99.90
23116;DHT22;11727;52.134;5.052;2023-02-26T09:03:10;2.70;99.90
23116;DHT22;11727;52.134;5.052;2023-02-26T09:05:35;2.80;99.90
23116;DHT22;11727;52.134;5.052;2023-02-26T09:08:01;2.80;99.90
23116;DHT22;11727;52.134;5.052;2023-02-26T09:10:27;2.80;99.90
23116;DHT22;11727;52.134;5.052;2023-02-26T09:12:52;2.80;99.90
23116;DHT22;11727;52.134;5.052;2023-02-26T09:15:18;2.80;99.90
23116;DHT22;11727;52.134;5.052;2023-02-26T09:17:45;2.80;99.90
23116;DHT22;11727;52.134;5.052;2023-02-26T09:20:11;2.80;99.90
23116;DHT22;11727;52.134;5.052;2023-02-26T09:22:38;2.90;99.90
23116;DHT22;11727;52.134;5.052;2023-02-26T09:25:04;2.90;99.90
23116;DHT22;11727;52.134;5.052;2023-02-26T09:27:31;2.90;99.90
23116;DHT22;11727;52.134;5.052;2023-02-26T09:29:57;3.00;99.90
23116;DHT22;11727;52.134;5.052;2023-02-26T09:32:22;3.00;99.90
23116;DHT22;11727;52.134;5.052;2023-02-26T09:34:48;3.10;99.90
23116;DHT22;11727;52.134;5.052;2023-02-26T09:37:14;3.20;99.90
23116;DHT22;11727;52.134;5.052;2023-02-26T09:39:39;3.20;99.90
23116;DHT22;11727;52.134;5.052;2023-02-26T09:44:57;3.30;99.90
23116;DHT22;11727;52.134;5.052;2023-02-26T09:47:30;3.30;99.90
23116;DHT22;11727;52.134;5.052;2023-02-26T09:50:26;3.30;99.90
23116;DHT22;11727;52.134;5.052;2023-02-26T09:52:55;3.40;99.90
23116;DHT22;11727;52.134;5.052;2023-02-26T09:56:02;3.30;99.90
23116;DHT22;11727;52.134;5.052;2023-02-26T09:58:30;3.50;99.90
23116;DHT22;11727;52.134;5.052;2023-02-26T10:06:34;3.60;99.90
23116;DHT22;11727;52.134;5.052;2023-02-26T10:16:59;4.10;99.90
23116;DHT22;11727;52.134;5.052;2023-02-26T10:19:29;4.20;99.90
23116;DHT22;11727;52.134;5.052;2023-02-26T10:24:41;4.60;99.90
23116;DHT22;11727;52.134;5.052;2023-02-26T10:27:15;4.80;99.90
23116;DHT22;11727;52.134;5.052;2023-02-26T10:29:56;5.00;99.90
23116;DHT22;11727;52.134;5.052;2023-02-26T10:32:37;5.10;99.90
23116;DHT22;11727;52.134;5.052;2023-02-26T10:35:14;5.20;99.90
23116;DHT22;11727;52.134;5.052;2023-02-26T10:38:10;5.20;99.90
23116;DHT22;11727;52.134;5.052;2023-02-26T10:43:26;5.30;99.90
23116;DHT22;11727;52.134;5.052;2023-02-26T10:51:31;6.00;99.90
23116;DHT22;11727;52.134;5.052;2023-02-26T10:54:25;6.10;99.90
23116;DHT22;11727;52.134;5.052;2023-02-26T10:56:51;6.10;99.90
23116;DHT22;11727;52.134;5.052;2023-02-26T10:59:17;6.00;99.90
23116;DHT22;11727;52.134;5.052;2023-02-26T11:01:43;6.00;99.90
23116;DHT22;11727;52.134;5.052;2023-02-26T11:04:15;6.20;99.90
23116;DHT22;11727;52.134;5.052;2023-02-26T11:06:45;6.40;99.90
23116;DHT22;11727;52.134;5.052;2023-02-26T11:09:24;6.50;99.90
23116;DHT22;11727;52.134;5.052;2023-02-26T11:11:54;6.50;99.90
23116;DHT22;11727;52.134;5.052;2023-02-26T11:14:21;6.40;99.90
23116;DHT22;11727;52.134;5.052;2023-02-26T11:16:51;6.40;99.90
23116;DHT22;11727;52.134;5.052;2023-02-26T11:19:22;6.00;99.90
23116;DHT22;11727;52.134;5.052;2023-02-26T11:21:50;6.00;99.90
23116;DHT22;11727;52.134;5.052;2023-02-26T11:26:49;6.10;99.90
23116;DHT22;11727;52.134;5.052;2023-02-26T11:29:19;6.10;99.90
23116;DHT22;11727;52.134;5.052;2023-02-26T11:31:52;6.30;99.90
23116;DHT22;11727;52.134;5.052;2023-02-26T11:34:24;6.50;99.90
23116;DHT22;11727;52.134;5.052;2023-02-26T11:36:52;6.50;99.90
23116;DHT22;11727;52.134;5.052;2023-02-26T11:39:23;6.50;99.90
23116;DHT22;11727;52.134;5.052;2023-02-26T11:41:52;6.70;99.90
23116;DHT22;11727;52.134;5.052;2023-02-26T11:47:04;7.10;99.90
23116;DHT22;11727;52.134;5.052;2023-02-26T11:49:30;7.30;99.90
23116;DHT22;11727;52.134;5.052;2023-02-26T11:52:16;7.30;99.90
23116;DHT22;11727;52.134;5.052;2023-02-26T11:54:45;7.20;99.90
23116;DHT22;11727;52.134;5.052;2023-02-26T11:57:25;7.10;99.90
23116;DHT22;11727;52.134;5.052;2023-02-26T11:59:52;7.00;99.90
23116;DHT22;11727;52.134;5.052;2023-02-26T12:02:23;6.90;99.90
23116;DHT22;11727;52.134;5.052;2023-02-26T12:04:51;6.80;99.90
23116;DHT22;11727;52.134;5.052;2023-02-26T12:07:18;6.70;99.90
23116;DHT22;11727;52.134;5.052;2023-02-26T12:09:45;6.80;99.90
23116;DHT22;11727;52.134;5.052;2023-02-26T12:12:21;6.60;99.90
23116;DHT22;11727;52.134;5.052;2023-02-26T12:21:03;5.90;99.90
23116;DHT22;11727;52.134;5.052;2023-02-26T12:29:14;6.20;99.90
23116;DHT22;11727;52.134;5.052;2023-02-26T12:34:55;6.30;99.90
23116;DHT22;11727;52.134;5.052;2023-02-26T12:40:59;6.50;99.90
23116;DHT22;11727;52.134;5.052;2023-02-26T12:43:46;6.40;99.90
23116;DHT22;11727;52.134;5.052;2023-02-26T13:05:23;7.00;99.90
23116;DHT22;11727;52.134;5.052;2023-02-26T13:08:18;6.80;99.90
23116;DHT22;11727;52.134;5.052;2023-02-26T13:11:00;6.80;99.90
23116;DHT22;11727;52.134;5.052;2023-02-26T13:16:29;7.00;99.90
23116;DHT22;11727;52.134;5.052;2023-02-26T13:21:35;7.00;99.90
23116;DHT22;11727;52.134;5.052;2023-02-26T13:24:09;7.20;99.90
23116;DHT22;11727;52.134;5.052;2023-02-26T13:26:36;7.20;99.90
23116;DHT22;11727;52.134;5.052;2023-02-26T13:29:13;7.30;99.90
23116;DHT22;11727;52.134;5.052;2023-02-26T13:34:12;7.30;99.90
23116;DHT22;11727;52.134;5.052;2023-02-26T13:36:39;7.50;99.90
23116;DHT22;11727;52.134;5.052;2023-02-26T13:39:41;7.70;99.90
23116;DHT22;11727;52.134;5.052;2023-02-26T13:50:40;7.50;99.90
23116;DHT22;11727;52.134;5.052;2023-02-26T13:55:52;7.50;99.90
23116;DHT22;11727;52.134;5.052;2023-02-26T14:01:17;7.50;99.90
23116;DHT22;11727;52.134;5.052;2023-02-26T14:04:05;7.60;99.90
23116;DHT22;11727;52.134;5.052;2023-02-26T14:09:05;7.80;99.90
23116;DHT22;11727;52.134;5.052;2023-02-26T14:11:58;7.40;99.90
23116;DHT22;11727;52.134;5.052;2023-02-26T14:19:40;7.50;99.90
23116;DHT22;11727;52.134;5.052;2023-02-26T14:32:33;8.20;99.90
23116;DHT22;11727;52.134;5.052;2023-02-26T14:35:08;8.20;99.90
23116;DHT22;11727;52.134;5.052;2023-02-26T14:37:34;8.20;99.90
23116;DHT22;11727;52.134;5.052;2023-02-26T14:45:17;7.60;99.90
23116;DHT22;11727;52.134;5.052;2023-02-26T14:47:47;7.40;99.90
23116;DHT22;11727;52.134;5.052;2023-02-26T14:50:18;7.40;99.90
23116;DHT22;11727;52.134;5.052;2023-02-26T14:53:09;7.50;99.90
23116;DHT22;11727;52.134;5.052;2023-02-26T14:55:59;7.50;99.90
23116;DHT22;11727;52.134;5.052;2023-02-26T14:58:44;7.50;99.90
23116;DHT22;11727;52.134;5.052;2023-02-26T15:17:53;6.50;99.90
23116;DHT22;11727;52.134;5.052;2023-02-26T15:21:03;6.70;99.90
23116;DHT22;11727;52.134;5.052;2023-02-26T15:23:38;6.70;99.90
23116;DHT22;11727;52.134;5.052;2023-02-26T15:26:06;6.80;99.90
23116;DHT22;11727;52.134;5.052;2023-02-26T15:28:37;6.60;99.90
23116;DHT22;11727;52.134;5.052;2023-02-26T15:31:05;6.60;99.90
23116;DHT22;11727;52.134;5.052;2023-02-26T15:33:32;6.50;99.90
23116;DHT22;11727;52.134;5.052;2023-02-26T15:35:59;6.60;99.90
23116;DHT22;11727;52.134;5.052;2023-02-26T15:38:25;6.70;99.90
23116;DHT22;11727;52.134;5.052;2023-02-26T15:41:02;6.80;99.90
23116;DHT22;11727;52.134;5.052;2023-02-26T15:43:28;6.60;99.90
23116;DHT22;11727;52.134;5.052;2023-02-26T15:45:55;6.40;99.90
23116;DHT22;11727;52.134;5.052;2023-02-26T15:48:31;6.30;99.90
23116;DHT22;11727;52.134;5.052;2023-02-26T15:51:00;6.40;99.90
23116;DHT22;11727;52.134;5.052;2023-02-26T15:53:48;6.40;99.90
23116;DHT22;11727;52.134;5.052;2023-02-26T15:56:24;6.50;99.90
23116;DHT22;11727;52.134;5.052;2023-02-26T15:59:06;6.60;99.90
23116;DHT22;11727;52.134;5.052;2023-02-26T16:01:33;6.60;99.90
23116;DHT22;11727;52.134;5.052;2023-02-26T16:04:04;6.70;99.90
23116;DHT22;11727;52.134;5.052;2023-02-26T16:06:42;6.70;99.90
23116;DHT22;11727;52.134;5.052;2023-02-26T16:09:23;6.70;99.90
23116;DHT22;11727;52.134;5.052;2023-02-26T16:11:52;6.70;99.90
23116;DHT22;11727;52.134;5.052;2023-02-26T16:14:23;6.60;99.90
23116;DHT22;11727;52.134;5.052;2023-02-26T16:16:51;6.40;99.90
23116;DHT22;11727;52.134;5.052;2023-02-26T16:19:26;6.40;99.90
23116;DHT22;11727;52.134;5.052;2023-02-26T16:21:55;6.30;99.90
23116;DHT22;11727;52.134;5.052;2023-02-26T16:24:21;6.20;99.90
23116;DHT22;11727;52.134;5.052;2023-02-26T16:26:56;6.20;99.90
23116;DHT22;11727;52.134;5.052;2023-02-26T16:29:29;6.20;99.90
23116;DHT22;11727;52.134;5.052;2023-02-26T16:31:58;6.20;99.90
23116;DHT22;11727;52.134;5.052;2023-02-26T16:34:43;6.10;99.90
23116;DHT22;11727;52.134;5.052;2023-02-26T16:39:44;5.90;99.90
23116;DHT22;11727;52.134;5.052;2023-02-26T16:42:18;5.80;99.90
23116;DHT22;11727;52.134;5.052;2023-02-26T16:45:00;5.60;99.90
23116;DHT22;11727;52.134;5.052;2023-02-26T16:47:28;5.50;99.90
23116;DHT22;11727;52.134;5.052;2023-02-26T16:49:55;5.40;99.90
23116;DHT22;11727;52.134;5.052;2023-02-26T16:52:23;5.40;99.90
23116;DHT22;11727;52.134;5.052;2023-02-26T16:54:57;5.30;99.90
23116;DHT22;11727;52.134;5.052;2023-02-26T16:57:35;5.20;99.90
23116;DHT22;11727;52.134;5.052;2023-02-26T17:00:10;5.10;99.90
23116;DHT22;11727;52.134;5.052;2023-02-26T17:02:44;5.10;99.90
23116;DHT22;11727;52.134;5.052;2023-02-26T17:05:22;5.00;99.90
23116;DHT22;11727;52.134;5.052;2023-02-26T17:08:15;4.90;99.90
23116;DHT22;11727;52.134;5.052;2023-02-26T17:10:48;4.80;99.90
23116;DHT22;11727;52.134;5.052;2023-02-26T17:13:18;4.80;99.90
23116;DHT22;11727;52.134;5.052;2023-02-26T17:15:45;4.70;99.90
23116;DHT22;11727;52.134;5.052;2023-02-26T17:18:12;4.70;99.90
23116;DHT22;11727;52.134;5.052;2023-02-26T17:20:38;4.60;99.90
23116;DHT22;11727;52.134;5.052;2023-02-26T17:23:05;4.60;99.90
23116;DHT22;11727;52.134;5.052;2023-02-26T17:25:39;4.60;99.90
23116;DHT22;11727;52.134;5.052;2023-02-26T17:28:06;4.50;99.90
23116;DHT22;11727;52.134;5.052;2023-02-26T17:30:32;4.50;99.90
23116;DHT22;11727;52.134;5.052;2023-02-26T17:33:00;4.50;99.90
23116;DHT22;11727;52.134;5.052;2023-02-26T17:35:27;4.50;99.90
23116;DHT22;11727;52.134;5.052;2023-02-26T17:37:54;4.40;99.90
23116;DHT22;11727;52.134;5.052;2023-02-26T17:40:26;4.40;99.90
23116;DHT22;11727;52.134;5.052;2023-02-26T17:42:52;4.30;99.90
23116;DHT22;11727;52.134;5.052;2023-02-26T17:45:19;4.30;99.90
23116;DHT22;11727;52.134;5.052;2023-02-26T17:47:45;4.20;99.90
23116;DHT22;11727;52.134;5.052;2023-02-26T17:50:45;4.20;99.90
23116;DHT22;11727;52.134;5.052;2023-02-26T17:53:15;4.10;99.90
23116;DHT22;11727;52.134;5.052;2023-02-26T17:55:42;4.10;99.90
23116;DHT22;11727;52.134;5.052;2023-02-26T17:58:25;4.10;99.90
23116;DHT22;11727;52.134;5.052;2023-02-26T18:00:51;4.00;99.90
23116;DHT22;11727;52.134;5.052;2023-02-26T18:03:17;4.00;99.90
23116;DHT22;11727;52.134;5.052;2023-02-26T18:05:45;4.00;99.90
23116;DHT22;11727;52.134;5.052;2023-02-26T18:08:28;4.00;99.90
23116;DHT22;11727;52.134;5.052;2023-02-26T18:10:55;3.90;99.90
23116;DHT22;11727;52.134;5.052;2023-02-26T18:13:21;3.90;99.90
23116;DHT22;11727;52.134;5.052;2023-02-26T18:15:48;3.90;99.90
23116;DHT22;11727;52.134;5.052;2023-02-26T18:18:15;3.80;99.90
23116;DHT22;11727;52.134;5.052;2023-02-26T18:20:41;3.80;99.90
23116;DHT22;11727;52.134;5.052;2023-02-26T18:23:08;3.80;99.90
23116;DHT22;11727;52.134;5.052;2023-02-26T18:25:38;3.70;99.90
23116;DHT22;11727;52.134;5.052;2023-02-26T18:28:04;3.70;99.90
23116;DHT22;11727;52.134;5.052;2023-02-26T18:30:34;3.70;99.90
23116;DHT22;11727;52.134;5.052;2023-02-26T18:33:05;3.60;99.90
23116;DHT22;11727;52.134;5.052;2023-02-26T18:35:31;3.60;99.90
23116;DHT22;11727;52.134;5.052;2023-02-26T18:37:57;3.60;99.90
23116;DHT22;11727;52.134;5.052;2023-02-26T18:40:24;3.50;99.90
23116;DHT22;11727;52.134;5.052;2023-02-26T18:42:51;3.50;99.90
23116;DHT22;11727;52.134;5.052;2023-02-26T18:45:17;3.50;99.90
23116;DHT22;11727;52.134;5.052;2023-02-26T18:47:44;3.50;99.90
23116;DHT22;11727;52.134;5.052;2023-02-26T18:50:15;3.40;99.90
23116;DHT22;11727;52.134;5.052;2023-02-26T18:52:41;3.40;99.90
23116;DHT22;11727;52.134;5.052;2023-02-26T18:55:08;3.30;99.90
23116;DHT22;11727;52.134;5.052;2023-02-26T18:57:34;3.30;99.90
23116;DHT22;11727;52.134;5.052;2023-02-26T19:00:00;3.30;99.90